createdAt,value
2023-05-05T00:02:16.452Z,12.80
2023-05-05T00:04:44.373Z,12.85
2023-05-05T00:07:12.163Z,12.88
2023-05-05T00:09:40.014Z,12.90
2023-05-05T00:12:08.055Z,12.92
2023-05-05T00:14:36.158Z,12.94
2023-05-05T00:17:04.181Z,12.97
2023-05-05T00:19:32.327Z,13.00
2023-05-05T00:22:00.394Z,13.03
2023-05-05T00:24:28.083Z,13.04
2023-05-05T00:26:55.960Z,13.03
2023-05-05T00:29:23.867Z,13.03
2023-05-05T00:31:52.577Z,13.03
2023-05-05T00:34:21.064Z,13.03
2023-05-05T00:36:49.651Z,13.06
2023-05-05T00:39:17.714Z,13.09
2023-05-05T00:41:45.706Z,13.10
2023-05-05T00:44:13.691Z,13.10
2023-05-05T00:46:41.937Z,13.11
2023-05-05T00:49:10.234Z,13.11
2023-05-05T00:51:38.276Z,13.13
2023-05-05T00:54:06.170Z,13.16
2023-05-05T00:56:34.755Z,13.14
2023-05-05T00:59:02.741Z,13.12
2023-05-05T01:01:30.731Z,13.08
2023-05-05T01:03:58.788Z,13.08
2023-05-05T01:06:54.165Z,13.07
2023-05-05T01:09:46.212Z,13.07
2023-05-05T01:12:32.557Z,13.07
2023-05-05T01:15:06.434Z,13.09
2023-05-05T01:17:42.659Z,13.12
2023-05-05T01:20:25.612Z,13.15
2023-05-05T01:23:00.501Z,13.16
2023-05-05T01:26:05.704Z,13.19
2023-05-05T01:29:03.033Z,13.20
2023-05-05T01:31:53.720Z,13.20
2023-05-05T01:34:28.167Z,13.19
2023-05-05T01:37:43.369Z,13.16
2023-05-05T01:40:13.670Z,13.16
2023-05-05T01:42:43.546Z,13.19
2023-05-05T01:45:12.797Z,13.17
2023-05-05T01:47:44.046Z,13.19
2023-05-05T01:50:13.783Z,13.18
2023-05-05T01:52:42.670Z,13.20
2023-05-05T01:55:13.003Z,13.18
2023-05-05T01:57:42.967Z,13.18
2023-05-05T02:00:11.908Z,13.17
2023-05-05T02:02:46.466Z,13.17
2023-05-05T02:05:16.483Z,13.15
2023-05-05T02:07:46.095Z,13.15
2023-05-05T02:10:15.174Z,13.17
2023-05-05T02:12:47.262Z,13.17
2023-05-05T02:15:16.614Z,13.18
2023-05-05T02:17:46.426Z,13.18
2023-05-05T02:20:15.578Z,13.18
2023-05-05T02:22:44.085Z,13.19
2023-05-05T02:25:12.050Z,13.20
2023-05-05T02:27:44.289Z,13.22
2023-05-05T02:30:15.869Z,13.25
2023-05-05T02:32:56.880Z,13.24
2023-05-05T02:35:37.303Z,13.23
2023-05-05T02:38:09.792Z,13.20
2023-05-05T02:40:43.535Z,13.16
2023-05-05T02:43:16.821Z,13.09
2023-05-05T02:45:45.114Z,13.01
2023-05-05T02:48:14.164Z,12.96
2023-05-05T02:50:42.688Z,12.88
2023-05-05T02:53:27.483Z,12.86
2023-05-05T02:56:12.995Z,12.82
2023-05-05T02:58:54.457Z,12.78
2023-05-05T03:01:46.753Z,12.76
2023-05-05T03:04:17.544Z,12.74
2023-05-05T03:06:56.606Z,12.74
2023-05-05T03:09:25.524Z,12.74
2023-05-05T03:12:03.986Z,12.70
2023-05-05T03:14:41.504Z,12.72
2023-05-05T03:17:12.545Z,12.71
2023-05-05T03:19:44.651Z,12.66
2023-05-05T03:22:12.899Z,12.64
2023-05-05T03:24:43.513Z,12.66
2023-05-05T03:27:11.702Z,12.63
2023-05-05T03:29:40.534Z,12.61
2023-05-05T03:32:12.132Z,12.61
2023-05-05T03:34:40.611Z,12.61
2023-05-05T03:37:08.423Z,12.63
2023-05-05T03:39:37.620Z,12.62
2023-05-05T03:42:06.076Z,12.64
2023-05-05T03:44:34.378Z,12.69
2023-05-05T03:47:02.271Z,12.69
2023-05-05T03:49:30.701Z,12.68
2023-05-05T03:51:59.081Z,12.70
2023-05-05T03:54:27.060Z,12.74
2023-05-05T03:56:56.313Z,12.76
2023-05-05T03:59:24.065Z,12.77
2023-05-05T04:01:51.934Z,12.80
2023-05-05T04:04:20.013Z,12.84
2023-05-05T04:06:48.704Z,12.86
2023-05-05T04:09:16.535Z,12.86
2023-05-05T04:11:44.588Z,12.84
2023-05-05T04:14:12.648Z,12.82
2023-05-05T04:16:40.707Z,12.86
2023-05-05T04:19:09.252Z,12.89
2023-05-05T04:21:37.236Z,12.89
2023-05-05T04:24:05.581Z,12.94
2023-05-05T04:26:33.511Z,13.00
2023-05-05T04:29:01.419Z,13.01
2023-05-05T04:31:29.499Z,13.03
2023-05-05T04:33:57.517Z,13.08
2023-05-05T04:36:25.403Z,13.11
2023-05-05T04:38:53.395Z,13.13
2023-05-05T04:41:21.405Z,13.16
2023-05-05T04:43:49.690Z,13.21
2023-05-05T04:46:17.547Z,13.24
2023-05-05T04:48:46.101Z,13.31
2023-05-05T04:51:14.318Z,13.39
2023-05-05T04:53:42.254Z,13.48
2023-05-05T04:56:10.248Z,13.57
2023-05-05T04:58:38.123Z,13.65
2023-05-05T05:01:06.905Z,13.70
2023-05-05T05:03:34.998Z,13.76
2023-05-05T05:06:03.136Z,13.85
2023-05-05T05:08:31.147Z,13.92
2023-05-05T05:11:00.826Z,13.98
2023-05-05T05:13:28.777Z,14.03
2023-05-05T05:15:56.707Z,14.13
2023-05-05T05:18:24.694Z,14.17
2023-05-05T05:20:52.900Z,14.21
2023-05-05T05:23:24.352Z,14.24
2023-05-05T05:25:52.446Z,14.22
2023-05-05T05:28:21.450Z,14.22
2023-05-05T05:30:52.938Z,14.24
2023-05-05T05:33:21.465Z,14.31
2023-05-05T05:35:50.040Z,14.38
2023-05-05T05:38:18.735Z,14.42
2023-05-05T05:40:47.074Z,14.46
2023-05-05T05:43:15.325Z,14.51
2023-05-05T05:45:45.877Z,14.53
2023-05-05T05:48:13.886Z,14.56
2023-05-05T05:50:41.919Z,14.56
2023-05-05T05:53:10.296Z,14.54
2023-05-05T05:55:38.293Z,14.53
2023-05-05T05:58:06.154Z,14.52
2023-05-05T06:00:34.208Z,14.54
2023-05-05T06:03:04.636Z,14.58
2023-05-05T06:05:34.442Z,14.61
2023-05-05T06:08:02.524Z,14.59
2023-05-05T06:10:31.162Z,14.62
2023-05-05T06:13:03.017Z,14.71
2023-05-05T06:15:31.365Z,14.77
2023-05-05T06:18:01.402Z,14.85
2023-05-05T06:20:29.526Z,14.93
2023-05-05T06:22:57.524Z,15.05
2023-05-05T06:25:26.879Z,15.09
2023-05-05T06:27:54.822Z,15.17
2023-05-05T06:30:22.803Z,15.24
2023-05-05T06:32:50.807Z,15.28
2023-05-05T06:35:18.649Z,15.30
2023-05-05T06:37:46.487Z,15.34
2023-05-05T06:40:14.439Z,15.40
2023-05-05T06:42:42.378Z,15.46
2023-05-05T06:45:12.558Z,15.51
2023-05-05T06:47:41.800Z,15.51
2023-05-05T06:50:10.317Z,15.54
2023-05-05T06:52:38.402Z,15.56
2023-05-05T06:55:06.913Z,15.57
2023-05-05T06:57:34.716Z,15.59
2023-05-05T07:00:07.474Z,15.66
2023-05-05T07:02:35.896Z,15.67
2023-05-05T07:05:04.353Z,15.70
2023-05-05T07:07:32.619Z,15.70
2023-05-05T07:10:00.900Z,15.72
2023-05-05T07:12:33.222Z,15.79
2023-05-05T07:15:09.428Z,15.77
2023-05-05T07:17:43.730Z,15.81
2023-05-05T07:20:12.205Z,15.81
2023-05-05T07:22:40.051Z,15.82
2023-05-05T07:25:08.769Z,15.88
2023-05-05T07:27:37.400Z,15.92
2023-05-05T07:30:11.169Z,15.97
2023-05-05T07:32:41.426Z,15.97
2023-05-05T07:35:09.450Z,15.97
2023-05-05T07:37:37.437Z,16.05
2023-05-05T07:40:06.153Z,16.13
2023-05-05T07:42:34.256Z,16.19
2023-05-05T07:45:02.241Z,16.25
2023-05-05T07:47:30.311Z,16.21
2023-05-05T07:49:58.685Z,16.23
2023-05-05T07:52:43.371Z,16.31
2023-05-05T07:55:12.825Z,16.39
2023-05-05T07:57:40.932Z,16.43
2023-05-05T08:00:10.254Z,16.53
2023-05-05T08:02:41.578Z,16.62
2023-05-05T08:05:10.076Z,16.62
2023-05-05T08:07:41.217Z,16.56
2023-05-05T08:10:11.623Z,16.58
2023-05-05T08:12:40.063Z,16.61
2023-05-05T08:15:08.966Z,16.59
2023-05-05T08:17:48.742Z,16.66
2023-05-05T08:20:18.860Z,16.69
2023-05-05T08:22:47.374Z,16.72
2023-05-05T08:25:15.434Z,16.81
2023-05-05T08:27:43.515Z,16.85
2023-05-05T08:30:12.008Z,16.93
2023-05-05T08:32:40.166Z,16.94
2023-05-05T08:35:08.674Z,16.90
2023-05-05T08:37:36.870Z,17.00
2023-05-05T08:40:05.731Z,17.13
2023-05-05T08:42:38.428Z,17.29
2023-05-05T08:45:09.032Z,17.43
2023-05-05T08:47:38.480Z,17.52
2023-05-05T08:50:10.108Z,17.56
2023-05-05T08:52:40.586Z,17.68
2023-05-05T08:55:08.544Z,17.75
2023-05-05T08:57:44.173Z,17.78
2023-05-05T09:00:13.416Z,17.81
2023-05-05T09:02:43.147Z,17.81
2023-05-05T09:05:11.441Z,17.71
2023-05-05T09:07:41.461Z,17.61
2023-05-05T09:10:11.461Z,17.56
2023-05-05T09:12:40.485Z,17.63
2023-05-05T09:15:10.547Z,17.71
2023-05-05T09:17:39.908Z,17.69
2023-05-05T09:20:10.474Z,17.68
2023-05-05T09:22:43.652Z,17.76
2023-05-05T09:25:14.426Z,17.77
2023-05-05T09:27:49.651Z,17.77
2023-05-05T09:30:23.828Z,17.85
2023-05-05T09:32:55.471Z,18.00
2023-05-05T09:35:23.952Z,18.07
2023-05-05T09:37:51.937Z,18.17
2023-05-05T09:40:21.345Z,18.26
2023-05-05T09:43:02.172Z,18.35
2023-05-05T09:45:30.237Z,18.49
2023-05-05T09:48:00.120Z,18.60
2023-05-05T09:50:30.898Z,18.65
2023-05-05T09:53:01.548Z,18.77
2023-05-05T09:55:33.479Z,18.96
2023-05-05T09:58:33.933Z,19.09
2023-05-05T10:01:01.712Z,19.12
2023-05-05T10:03:29.606Z,19.12
2023-05-05T10:05:59.688Z,19.16
2023-05-05T10:08:30.672Z,19.26
2023-05-05T10:11:00.900Z,19.41
2023-05-05T10:13:29.993Z,19.58
2023-05-05T10:15:58.081Z,19.74
2023-05-05T10:18:28.248Z,19.75
2023-05-05T10:20:57.657Z,19.66
2023-05-05T10:23:34.890Z,19.73
2023-05-05T10:26:06.350Z,19.80
2023-05-05T10:28:40.141Z,19.80
2023-05-05T10:31:25.017Z,19.68
2023-05-05T10:34:03.406Z,19.61
2023-05-05T10:36:31.864Z,19.61
2023-05-05T10:39:00.653Z,19.56
2023-05-05T10:41:28.773Z,19.47
2023-05-05T10:43:57.677Z,19.44
2023-05-05T10:46:27.020Z,19.47
2023-05-05T10:49:28.629Z,19.60
2023-05-05T10:52:10.052Z,19.61
2023-05-05T10:55:09.395Z,19.56
2023-05-05T10:57:41.693Z,19.58
2023-05-05T11:00:10.296Z,19.75
2023-05-05T11:02:38.432Z,19.88
2023-05-05T11:05:18.273Z,19.98
2023-05-05T11:07:49.882Z,20.00
2023-05-05T11:10:23.409Z,19.93
2023-05-05T11:12:54.398Z,19.81
2023-05-05T11:15:22.371Z,19.69
2023-05-05T11:17:51.087Z,19.66
2023-05-05T11:20:39.939Z,19.78
2023-05-05T11:23:08.049Z,20.02
2023-05-05T11:25:42.024Z,20.24
2023-05-05T11:28:12.809Z,20.39
2023-05-05T11:30:59.361Z,20.39
2023-05-05T11:33:37.633Z,20.39
2023-05-05T11:36:08.870Z,20.27
2023-05-05T11:38:52.304Z,20.18
2023-05-05T11:41:50.963Z,20.08
2023-05-05T11:44:20.289Z,20.19
2023-05-05T11:46:51.190Z,20.29
2023-05-05T11:49:32.584Z,20.27
2023-05-05T11:52:12.412Z,20.17
2023-05-05T11:54:49.001Z,20.06
2023-05-05T11:57:21.098Z,19.99
2023-05-05T11:59:55.005Z,19.92
2023-05-05T12:02:23.857Z,19.83
2023-05-05T12:04:52.695Z,19.85
2023-05-05T12:07:23.550Z,19.83
2023-05-05T12:09:52.187Z,19.81
2023-05-05T12:12:20.456Z,19.81
2023-05-05T12:14:52.398Z,19.83
2023-05-05T12:17:22.146Z,19.83
2023-05-05T12:19:54.510Z,19.82
2023-05-05T12:22:26.759Z,19.82
2023-05-05T12:25:01.134Z,19.78
2023-05-05T12:27:29.746Z,19.80
2023-05-05T12:30:11.670Z,19.92
2023-05-05T12:32:40.081Z,20.13
2023-05-05T12:35:09.619Z,20.43
2023-05-05T12:37:38.089Z,20.72
2023-05-05T12:40:07.303Z,20.83
2023-05-05T12:42:40.020Z,20.82
2023-05-05T12:45:17.441Z,20.76
2023-05-05T12:47:45.479Z,20.76
2023-05-05T12:50:13.433Z,20.76
2023-05-05T12:52:45.264Z,20.68
2023-05-05T12:55:13.322Z,20.62
2023-05-05T12:58:01.413Z,20.56
2023-05-05T13:00:29.299Z,20.50
2023-05-05T13:02:58.096Z,20.39
2023-05-05T13:05:31.584Z,20.31
2023-05-05T13:07:59.802Z,20.25
2023-05-05T13:10:31.461Z,20.27
2023-05-05T13:12:59.599Z,20.34
2023-05-05T13:15:27.928Z,20.48
2023-05-05T13:18:02.803Z,20.62
2023-05-05T13:20:30.728Z,20.70
2023-05-05T13:22:58.578Z,20.64
2023-05-05T13:25:26.840Z,20.60
2023-05-05T13:27:54.623Z,20.51
2023-05-05T13:30:22.680Z,20.46
2023-05-05T13:32:50.626Z,20.40
2023-05-05T13:35:18.440Z,20.48
2023-05-05T13:37:47.562Z,20.59
2023-05-05T13:40:15.553Z,20.66
2023-05-05T13:42:43.415Z,20.74
2023-05-05T13:45:12.195Z,20.85
2023-05-05T13:47:41.957Z,20.93
2023-05-05T13:50:10.335Z,21.02
2023-05-05T13:52:38.601Z,21.10
2023-05-05T13:55:07.324Z,21.15
2023-05-05T13:57:40.554Z,21.17
2023-05-05T14:00:09.093Z,21.22
2023-05-05T14:02:37.198Z,21.25
2023-05-05T14:05:05.456Z,21.20
2023-05-05T14:07:33.290Z,21.10
2023-05-05T14:10:01.181Z,21.04
2023-05-05T14:12:29.125Z,21.00
2023-05-05T14:14:56.977Z,21.04
2023-05-05T14:17:25.558Z,21.07
2023-05-05T14:19:53.393Z,21.06
2023-05-05T14:22:21.375Z,21.06
2023-05-05T14:24:49.380Z,21.07
2023-05-05T14:27:17.234Z,21.07
2023-05-05T14:29:44.977Z,21.13
2023-05-05T14:32:12.831Z,21.18
2023-05-05T14:34:40.630Z,21.21
2023-05-05T14:37:08.452Z,21.22
2023-05-05T14:39:36.314Z,21.25
2023-05-05T14:42:04.462Z,21.27
2023-05-05T14:44:32.281Z,21.30
2023-05-05T14:47:00.211Z,21.32
2023-05-05T14:49:28.098Z,21.32
2023-05-05T14:51:56.862Z,21.31
2023-05-05T14:54:28.790Z,21.33
2023-05-05T14:56:56.917Z,21.35
2023-05-05T14:59:24.937Z,21.41
2023-05-05T15:01:53.056Z,21.46
2023-05-05T15:04:21.019Z,21.52
2023-05-05T15:06:48.807Z,21.59
2023-05-05T15:09:18.171Z,21.62
2023-05-05T15:11:46.116Z,21.58
2023-05-05T15:14:13.973Z,21.57
2023-05-05T15:16:41.949Z,21.59
2023-05-05T15:19:09.909Z,21.68
2023-05-05T15:21:37.898Z,21.86
2023-05-05T15:24:06.212Z,21.92
2023-05-05T15:26:34.017Z,22.00
2023-05-05T15:29:01.882Z,22.01
2023-05-05T15:31:29.723Z,21.95
2023-05-05T15:33:57.619Z,21.95
2023-05-05T15:36:25.872Z,21.92
2023-05-05T15:38:53.722Z,21.92
2023-05-05T15:41:21.588Z,21.93
2023-05-05T15:43:49.344Z,21.90
2023-05-05T15:46:17.265Z,21.87
2023-05-05T15:48:45.415Z,21.81
2023-05-05T15:51:13.315Z,21.77
2023-05-05T15:53:41.592Z,21.78
2023-05-05T15:56:11.620Z,21.77
2023-05-05T15:58:39.374Z,21.80
2023-05-05T16:01:07.326Z,21.76
2023-05-05T16:03:35.408Z,21.68
2023-05-05T16:06:03.594Z,21.54
2023-05-05T16:08:32.087Z,21.44
2023-05-05T16:10:59.907Z,21.40
2023-05-05T16:13:27.877Z,21.29
2023-05-05T16:15:56.089Z,21.20
2023-05-05T16:18:24.017Z,21.14
2023-05-05T16:20:51.925Z,21.06
2023-05-05T16:23:19.940Z,21.01
2023-05-05T16:25:47.909Z,20.94
2023-05-05T16:28:15.907Z,20.91
2023-05-05T16:30:43.644Z,20.87
2023-05-05T16:33:11.677Z,20.83
2023-05-05T16:35:39.583Z,20.83
2023-05-05T16:38:07.540Z,20.81
2023-05-05T16:40:37.720Z,20.76
2023-05-05T16:43:06.240Z,20.74
2023-05-05T16:45:34.116Z,20.70
2023-05-05T16:48:01.998Z,20.65
2023-05-05T16:50:29.956Z,20.62
2023-05-05T16:52:57.882Z,20.57
2023-05-05T16:55:25.994Z,20.51
2023-05-05T16:57:53.859Z,20.48
2023-05-05T17:00:21.705Z,20.46
2023-05-05T17:02:50.063Z,20.43
2023-05-05T17:05:18.077Z,20.37
2023-05-05T17:07:48.118Z,20.33
2023-05-05T17:10:16.309Z,20.30
2023-05-05T17:12:44.217Z,20.27
2023-05-05T17:15:12.049Z,20.23
2023-05-05T17:17:41.547Z,20.20
2023-05-05T17:20:11.308Z,20.16
2023-05-05T17:22:39.222Z,20.13
2023-05-05T17:25:07.498Z,20.08
2023-05-05T17:27:35.513Z,20.06
2023-05-05T17:30:04.022Z,20.03
2023-05-05T17:32:31.922Z,19.98
2023-05-05T17:34:59.955Z,19.93
2023-05-05T17:37:28.255Z,19.87
2023-05-05T17:39:56.105Z,19.80
2023-05-05T17:42:26.968Z,19.75
2023-05-05T17:44:54.816Z,19.68
2023-05-05T17:47:24.187Z,19.61
2023-05-05T17:49:56.308Z,19.53
2023-05-05T17:52:27.526Z,19.46
2023-05-05T17:54:55.449Z,19.37
2023-05-05T17:57:23.446Z,19.29
2023-05-05T17:59:53.281Z,19.22
2023-05-05T18:02:21.419Z,19.14
2023-05-05T18:04:49.307Z,19.07
2023-05-05T18:07:17.245Z,19.02
2023-05-05T18:09:45.219Z,18.96
2023-05-05T18:12:13.014Z,18.91
2023-05-05T18:14:40.995Z,18.86
2023-05-05T18:17:08.874Z,18.79
2023-05-05T18:19:37.038Z,18.68
2023-05-05T18:22:05.194Z,18.60
2023-05-05T18:24:32.984Z,18.53
2023-05-05T18:27:00.897Z,18.47
2023-05-05T18:29:28.922Z,18.41
2023-05-05T18:31:59.058Z,18.35
2023-05-05T18:34:27.509Z,18.29
2023-05-05T18:36:55.270Z,18.18
2023-05-05T18:39:23.752Z,18.14
2023-05-05T18:41:51.817Z,18.09
2023-05-05T18:44:20.152Z,18.03
2023-05-05T18:46:49.389Z,18.00
2023-05-05T18:49:17.688Z,17.92
2023-05-05T18:51:45.784Z,17.86
2023-05-05T18:54:13.732Z,17.78
2023-05-05T18:56:42.290Z,17.69
2023-05-05T18:59:10.170Z,17.62
2023-05-05T19:01:38.093Z,17.56
2023-05-05T19:04:15.581Z,17.52
2023-05-05T19:06:52.443Z,17.49
2023-05-05T19:09:20.570Z,17.45
2023-05-05T19:11:48.572Z,17.41
2023-05-05T19:14:17.624Z,17.36
2023-05-05T19:16:45.709Z,17.30
2023-05-05T19:19:13.741Z,17.24
2023-05-05T19:21:41.741Z,17.17
2023-05-05T19:24:09.792Z,17.10
2023-05-05T19:26:37.916Z,17.05
2023-05-05T19:29:06.066Z,17.01
2023-05-05T19:31:34.069Z,16.96
2023-05-05T19:34:03.941Z,16.90
2023-05-05T19:36:32.407Z,16.85
2023-05-05T19:39:01.893Z,16.79
2023-05-05T19:41:31.892Z,16.73
2023-05-05T19:44:00.213Z,16.68
2023-05-05T19:46:28.166Z,16.64
2023-05-05T19:48:56.218Z,16.57
2023-05-05T19:51:24.168Z,16.56
2023-05-05T19:53:55.111Z,16.51
2023-05-05T19:56:24.179Z,16.45
2023-05-05T19:59:00.650Z,16.39
2023-05-05T20:01:29.430Z,16.24
2023-05-05T20:03:57.611Z,16.17
2023-05-05T20:06:27.123Z,16.11
2023-05-05T20:08:55.522Z,16.07
2023-05-05T20:11:23.423Z,16.04
2023-05-05T20:13:51.856Z,15.94
2023-05-05T20:16:21.498Z,15.85
2023-05-05T20:18:50.432Z,15.75
2023-05-05T20:21:18.614Z,15.66
2023-05-05T20:23:46.759Z,15.63
2023-05-05T20:26:14.583Z,15.59
2023-05-05T20:28:45.101Z,15.53
2023-05-05T20:31:14.402Z,15.46
2023-05-05T20:33:42.528Z,15.41
2023-05-05T20:36:11.140Z,15.35
2023-05-05T20:38:39.005Z,15.33
2023-05-05T20:41:06.975Z,15.30
2023-05-05T20:43:36.360Z,15.28
2023-05-05T20:46:04.371Z,15.21
2023-05-05T20:48:32.199Z,15.13
2023-05-05T20:51:03.641Z,15.08
2023-05-05T20:53:32.236Z,15.03
2023-05-05T20:56:00.152Z,14.98
2023-05-05T20:58:28.109Z,14.96
2023-05-05T21:00:56.129Z,14.93
2023-05-05T21:03:24.143Z,14.91
2023-05-05T21:05:52.126Z,14.89
2023-05-05T21:08:19.960Z,14.87
2023-05-05T21:10:47.979Z,14.82
2023-05-05T21:13:16.263Z,14.76
2023-05-05T21:15:44.254Z,14.69
2023-05-05T21:18:12.328Z,14.62
2023-05-05T21:20:40.326Z,14.58
2023-05-05T21:23:08.257Z,14.58
2023-05-05T21:25:37.512Z,14.53
2023-05-05T21:28:05.469Z,14.49
2023-05-05T21:30:33.448Z,14.45
2023-05-05T21:33:01.299Z,14.43
2023-05-05T21:35:29.313Z,14.38
2023-05-05T21:37:57.244Z,14.33
2023-05-05T21:40:26.347Z,14.29
2023-05-05T21:42:54.272Z,14.23
2023-05-05T21:45:22.290Z,14.25
2023-05-05T21:47:50.862Z,14.25
2023-05-05T21:50:18.950Z,14.26
2023-05-05T21:52:47.065Z,14.28
2023-05-05T21:55:15.087Z,14.28
2023-05-05T21:57:43.197Z,14.34
2023-05-05T22:00:16.589Z,14.35
2023-05-05T22:02:45.153Z,14.33
2023-05-05T22:05:13.217Z,14.34
2023-05-05T22:07:41.103Z,14.34
2023-05-05T22:10:09.742Z,14.35
2023-05-05T22:12:37.938Z,14.35
2023-05-05T22:15:06.610Z,14.32
2023-05-05T22:17:34.507Z,14.32
2023-05-05T22:20:03.844Z,14.33
2023-05-05T22:22:31.902Z,14.31
2023-05-05T22:24:59.749Z,14.35
2023-05-05T22:27:27.612Z,14.33
2023-05-05T22:29:55.499Z,14.30
2023-05-05T22:32:23.276Z,14.27
2023-05-05T22:34:51.177Z,14.22
2023-05-05T22:37:19.101Z,14.21
2023-05-05T22:39:46.968Z,14.23
2023-05-05T22:42:14.776Z,14.20
2023-05-05T22:44:42.605Z,14.18
2023-05-05T22:47:10.561Z,14.14
2023-05-05T22:49:38.667Z,14.15
2023-05-05T22:52:06.621Z,14.12
2023-05-05T22:54:34.424Z,14.10
2023-05-05T22:57:02.362Z,14.11
2023-05-05T22:59:30.230Z,14.12
2023-05-05T23:01:58.319Z,14.11
2023-05-05T23:04:26.347Z,14.09
2023-05-05T23:06:54.325Z,14.05
2023-05-05T23:09:22.177Z,14.01
2023-05-05T23:11:50.016Z,13.99
2023-05-05T23:14:19.412Z,13.95
2023-05-05T23:16:47.331Z,13.94
2023-05-05T23:19:15.242Z,13.95
2023-05-05T23:21:52.627Z,13.91
2023-05-05T23:24:21.925Z,13.88
2023-05-05T23:26:49.841Z,13.85
2023-05-05T23:29:18.389Z,13.88
2023-05-05T23:31:46.975Z,13.85
2023-05-05T23:34:14.927Z,13.82
2023-05-05T23:36:42.963Z,13.81
2023-05-05T23:39:11.081Z,13.80
2023-05-05T23:41:38.972Z,13.79
2023-05-05T23:44:07.124Z,13.81
2023-05-05T23:46:35.054Z,13.82
2023-05-05T23:49:02.929Z,13.80
2023-05-05T23:51:31.120Z,13.77
2023-05-05T23:53:59.007Z,13.76
2023-05-05T23:56:26.875Z,13.76
2023-05-05T23:58:54.725Z,13.74
